createdAt,value
2022-09-20T00:01:21.096Z,11.00
2022-09-20T00:03:50.852Z,11.00
2022-09-20T00:06:23.542Z,11.50
2022-09-20T00:08:50.975Z,10.90
2022-09-20T00:11:23.210Z,12.20
2022-09-20T00:13:53.097Z,13.50
2022-09-20T00:16:26.251Z,10.90
2022-09-20T00:18:55.906Z,11.60
2022-09-20T00:21:25.248Z,10.80
2022-09-20T00:23:52.701Z,10.80
2022-09-20T00:26:20.138Z,11.70
2022-09-20T00:28:47.306Z,10.70
2022-09-20T00:31:14.950Z,10.70
2022-09-20T00:34:00.486Z,10.60
2022-09-20T00:36:27.525Z,10.70
2022-09-20T00:38:58.830Z,10.70
2022-09-20T00:41:25.861Z,10.60
2022-09-20T00:43:53.780Z,10.60
2022-09-20T00:46:28.445Z,11.60
2022-09-20T00:49:03.242Z,10.60
2022-09-20T00:51:36.699Z,12.10
2022-09-20T00:54:06.609Z,10.50
2022-09-20T00:56:37.157Z,10.30
2022-09-20T00:59:13.175Z,10.20
2022-09-20T01:01:40.166Z,10.30
2022-09-20T01:04:07.787Z,10.30
2022-09-20T01:06:35.314Z,10.60
2022-09-20T01:09:05.767Z,10.50
2022-09-20T01:11:34.084Z,10.20
2022-09-20T01:14:01.041Z,10.10
2022-09-20T01:16:31.225Z,10.10
2022-09-20T01:19:00.684Z,11.20
2022-09-20T01:21:28.725Z,10.20
2022-09-20T01:24:23.033Z,10.10
2022-09-20T01:27:19.313Z,10.00
2022-09-20T01:30:03.383Z,9.80
2022-09-20T01:32:44.690Z,9.80
2022-09-20T01:35:12.222Z,9.70
2022-09-20T01:37:56.026Z,9.70
2022-09-20T01:40:48.184Z,9.80
2022-09-20T01:43:27.491Z,9.60
2022-09-20T01:45:54.650Z,10.30
2022-09-20T01:48:29.455Z,9.70
2022-09-20T01:51:13.600Z,9.80
2022-09-20T01:54:04.666Z,9.90
2022-09-20T01:57:14.285Z,9.80
2022-09-20T02:00:13.142Z,9.80
2022-09-20T02:02:48.619Z,9.60
2022-09-20T02:05:18.579Z,9.70
2022-09-20T02:08:09.112Z,9.60
2022-09-20T02:10:47.629Z,9.60
2022-09-20T02:13:36.231Z,9.50
2022-09-20T02:16:32.517Z,9.50
2022-09-20T02:19:21.711Z,9.40
2022-09-20T02:21:57.354Z,9.20
2022-09-20T02:24:30.156Z,9.00
2022-09-20T02:27:24.300Z,9.00
2022-09-20T02:30:18.063Z,8.90
2022-09-20T02:32:53.385Z,8.90
2022-09-20T02:35:50.140Z,9.20
2022-09-20T02:38:47.997Z,8.80
2022-09-20T02:41:50.519Z,8.80
2022-09-20T02:44:42.022Z,8.70
2022-09-20T02:47:35.825Z,8.70
2022-09-20T02:50:20.798Z,8.70
2022-09-20T02:52:57.424Z,8.60
2022-09-20T02:55:50.567Z,8.50
2022-09-20T02:58:25.522Z,8.60
2022-09-20T03:01:10.092Z,8.60
2022-09-20T03:03:39.877Z,8.50
2022-09-20T03:06:30.214Z,8.40
2022-09-20T03:09:22.197Z,8.40
2022-09-20T03:12:07.086Z,8.80
2022-09-20T03:15:08.856Z,8.50
2022-09-20T03:17:51.506Z,8.60
2022-09-20T03:20:28.675Z,8.60
2022-09-20T03:23:10.658Z,8.70
2022-09-20T03:25:54.761Z,8.70
2022-09-20T03:28:34.200Z,8.60
2022-09-20T03:31:28.426Z,8.70
2022-09-20T03:34:32.127Z,8.70
2022-09-20T03:37:20.114Z,8.60
2022-09-20T03:40:19.391Z,8.40
2022-09-20T03:42:53.746Z,8.10
2022-09-20T03:45:31.122Z,8.00
2022-09-20T03:48:16.751Z,8.00
2022-09-20T03:51:06.765Z,7.80
2022-09-20T03:53:52.110Z,7.90
2022-09-20T03:56:42.641Z,8.00
2022-09-20T03:59:40.002Z,8.00
2022-09-20T04:02:31.239Z,7.90
2022-09-20T04:05:12.390Z,7.90
2022-09-20T04:07:57.879Z,8.10
2022-09-20T04:10:41.566Z,8.10
2022-09-20T04:13:23.744Z,8.00
2022-09-20T04:16:08.802Z,8.00
2022-09-20T04:18:57.120Z,8.00
2022-09-20T04:21:29.640Z,8.00
2022-09-20T04:24:15.233Z,8.00
2022-09-20T04:26:47.302Z,7.90
2022-09-20T04:29:40.762Z,7.90
2022-09-20T04:32:35.158Z,7.70
2022-09-20T04:35:31.161Z,7.80
2022-09-20T04:38:00.941Z,7.80
2022-09-20T04:40:48.006Z,7.80
2022-09-20T04:43:33.432Z,7.90
2022-09-20T04:46:25.497Z,7.80
2022-09-20T04:49:18.893Z,7.80
2022-09-20T04:52:22.483Z,7.80
2022-09-20T04:55:26.907Z,7.90
2022-09-20T04:58:08.618Z,7.90
2022-09-20T05:01:19.449Z,7.90
2022-09-20T05:04:16.600Z,8.00
2022-09-20T05:07:11.716Z,8.20
2022-09-20T05:09:56.472Z,7.80
2022-09-20T05:12:54.723Z,7.50
2022-09-20T05:15:38.598Z,7.50
2022-09-20T05:18:51.062Z,7.50
2022-09-20T05:21:36.599Z,7.60
2022-09-20T05:24:31.902Z,7.60
2022-09-20T05:27:13.873Z,7.70
2022-09-20T05:29:59.543Z,7.70
2022-09-20T05:32:34.210Z,7.70
2022-09-20T05:35:15.522Z,7.90
2022-09-20T05:37:57.481Z,8.00
2022-09-20T05:40:55.615Z,8.00
2022-09-20T05:43:32.786Z,8.10
2022-09-20T05:46:38.012Z,8.10
2022-09-20T05:49:25.084Z,8.10
2022-09-20T05:52:19.726Z,7.90
2022-09-20T05:55:09.169Z,7.70
2022-09-20T05:58:10.298Z,7.60
2022-09-20T06:00:46.792Z,7.80
2022-09-20T06:03:25.705Z,8.20
2022-09-20T06:06:32.779Z,8.10
2022-09-20T06:09:17.930Z,8.40
2022-09-20T06:11:53.761Z,8.50
2022-09-20T06:14:47.916Z,8.70
2022-09-20T06:17:36.578Z,9.00
2022-09-20T06:20:10.925Z,9.20
2022-09-20T06:22:41.070Z,10.00
2022-09-20T06:25:07.731Z,9.20
2022-09-20T06:27:49.997Z,9.30
2022-09-20T06:30:29.769Z,9.30
2022-09-20T06:32:58.945Z,9.50
2022-09-20T06:35:33.811Z,9.50
2022-09-20T06:38:54.045Z,9.70
2022-09-20T06:41:28.346Z,9.80
2022-09-20T06:43:58.635Z,12.00
2022-09-20T06:46:29.355Z,10.30
2022-09-20T06:48:57.118Z,10.40
2022-09-20T06:51:26.466Z,10.40
2022-09-20T06:53:56.081Z,10.40
2022-09-20T06:56:27.805Z,10.30
2022-09-20T06:58:54.716Z,10.60
2022-09-20T07:01:29.737Z,10.70
2022-09-20T07:03:58.829Z,11.10
2022-09-20T07:06:26.130Z,11.00
2022-09-20T07:08:52.916Z,10.80
2022-09-20T07:11:20.275Z,11.10
2022-09-20T07:13:52.061Z,11.20
2022-09-20T07:16:19.950Z,11.20
2022-09-20T07:18:47.986Z,11.40
2022-09-20T07:21:17.571Z,11.30
2022-09-20T07:23:50.124Z,11.50
2022-09-20T07:26:18.340Z,11.40
2022-09-20T07:28:45.339Z,11.80
2022-09-20T07:31:12.159Z,11.90
2022-09-20T07:33:38.982Z,12.10
2022-09-20T07:36:05.973Z,12.40
2022-09-20T07:38:32.887Z,12.00
2022-09-20T07:41:02.351Z,12.20
2022-09-20T07:43:30.525Z,12.30
2022-09-20T07:45:58.069Z,12.70
2022-09-20T07:48:31.477Z,13.10
2022-09-20T07:51:10.629Z,13.10
2022-09-20T07:53:38.344Z,13.90
2022-09-20T07:56:12.558Z,13.70
2022-09-20T07:58:39.647Z,13.60
2022-09-20T08:01:12.688Z,14.00
2022-09-20T08:03:40.488Z,14.20
2022-09-20T08:06:14.542Z,14.60
2022-09-20T08:08:41.289Z,14.20
2022-09-20T08:11:16.148Z,14.30
2022-09-20T08:14:07.390Z,14.00
2022-09-20T08:16:42.844Z,15.30
2022-09-20T08:19:13.824Z,14.40
2022-09-20T08:21:41.058Z,14.50
2022-09-20T08:24:07.799Z,15.10
2022-09-20T08:26:37.520Z,15.10
2022-09-20T08:29:06.007Z,15.10
2022-09-20T08:31:37.056Z,15.10
2022-09-20T08:34:06.703Z,15.10
2022-09-20T08:36:36.684Z,16.10
2022-09-20T08:42:20.762Z,16.10
2022-09-20T08:44:58.515Z,16.30
2022-09-20T08:47:27.554Z,16.60
2022-09-20T08:49:57.281Z,17.00
2022-09-20T08:52:36.309Z,17.40
2022-09-20T08:55:13.572Z,16.90
2022-09-20T08:57:40.595Z,17.20
2022-09-20T09:00:17.522Z,17.50
2022-09-20T09:02:44.626Z,17.80
2022-09-20T09:05:36.866Z,17.70
2022-09-20T09:08:16.660Z,17.60
2022-09-20T09:10:47.397Z,17.40
2022-09-20T09:13:42.693Z,17.70
2022-09-20T09:16:14.936Z,16.90
2022-09-20T09:18:44.865Z,17.00
2022-09-20T09:21:30.129Z,17.20
2022-09-20T09:24:04.404Z,17.90
2022-09-20T09:26:39.493Z,17.40
2022-09-20T09:29:18.369Z,17.40
2022-09-20T09:31:48.525Z,17.50
2022-09-20T09:34:33.434Z,18.20
2022-09-20T09:37:00.398Z,18.00
2022-09-20T09:39:30.392Z,19.20
2022-09-20T09:42:01.622Z,18.70
2022-09-20T09:44:35.523Z,18.60
2022-09-20T09:47:02.412Z,18.50
2022-09-20T09:49:36.589Z,18.70
2022-09-20T09:52:14.334Z,18.90
2022-09-20T09:54:50.906Z,18.40
2022-09-20T09:57:55.723Z,18.40
2022-09-20T10:00:24.327Z,18.70
2022-09-20T10:03:05.898Z,19.20
2022-09-20T10:05:46.368Z,19.60
2022-09-20T10:08:46.236Z,19.50
2022-09-20T10:11:50.576Z,19.30
2022-09-20T10:14:23.590Z,19.90
2022-09-20T10:17:09.159Z,20.10
2022-09-20T10:19:56.718Z,20.20
2022-09-20T10:23:06.794Z,20.30
2022-09-20T10:25:58.041Z,20.20
2022-09-20T10:28:24.752Z,20.70
2022-09-20T10:31:30.526Z,20.60
2022-09-20T10:34:40.118Z,20.70
2022-09-20T10:37:22.675Z,20.70
2022-09-20T10:40:02.640Z,20.70
2022-09-20T10:42:47.852Z,21.00
2022-09-20T10:45:59.110Z,20.90
2022-09-20T10:48:41.252Z,21.20
2022-09-20T10:51:39.762Z,20.90
2022-09-20T10:54:33.809Z,21.10
2022-09-20T10:57:46.449Z,21.00
2022-09-20T11:01:01.502Z,21.10
2022-09-20T11:04:07.219Z,21.60
2022-09-20T11:06:54.749Z,21.50
2022-09-20T11:09:27.075Z,21.50
2022-09-20T11:12:15.437Z,21.80
2022-09-20T11:15:06.987Z,21.70
2022-09-20T11:17:57.687Z,21.80
2022-09-20T11:20:49.067Z,22.30
2022-09-20T11:23:27.394Z,22.30
2022-09-20T11:26:25.906Z,22.00
2022-09-20T11:28:56.007Z,22.50
2022-09-20T11:31:30.789Z,22.80
2022-09-20T11:34:11.879Z,22.70
2022-09-20T11:37:00.814Z,23.00
2022-09-20T11:39:48.050Z,21.80
2022-09-20T11:42:20.902Z,22.10
2022-09-20T11:44:47.755Z,22.80
2022-09-20T11:47:54.083Z,23.00
2022-09-20T11:50:45.142Z,22.50
2022-09-20T11:53:37.257Z,22.40
2022-09-20T11:56:15.586Z,22.50
2022-09-20T11:58:50.516Z,23.00
2022-09-20T12:01:29.095Z,23.70
2022-09-20T12:04:34.727Z,23.60
2022-09-20T12:07:17.792Z,23.60
2022-09-20T12:09:52.379Z,23.80
2022-09-20T12:12:30.877Z,23.50
2022-09-20T12:15:00.207Z,23.60
2022-09-20T12:17:45.665Z,23.20
2022-09-20T12:20:42.593Z,21.40
2022-09-20T12:23:54.474Z,22.20
2022-09-20T12:26:21.582Z,23.10
2022-09-20T12:28:49.947Z,23.40
2022-09-20T12:31:22.629Z,23.60
2022-09-20T12:33:58.141Z,24.00
2022-09-20T12:36:26.762Z,24.50
2022-09-20T12:38:58.997Z,24.80
2022-09-20T12:41:28.540Z,25.10
2022-09-20T12:43:57.811Z,24.80
2022-09-20T12:46:33.818Z,24.50
2022-09-20T12:49:49.069Z,24.20
2022-09-20T12:53:04.149Z,24.00
2022-09-20T12:55:50.438Z,23.90
2022-09-20T12:58:41.569Z,24.70
2022-09-20T13:01:13.295Z,25.40
2022-09-20T13:03:43.499Z,24.20
2022-09-20T13:06:13.051Z,22.10
2022-09-20T13:08:48.252Z,22.90
2022-09-20T13:11:21.170Z,23.70
2022-09-20T13:14:13.123Z,24.10
2022-09-20T13:17:06.498Z,24.20
2022-09-20T13:19:47.692Z,24.70
2022-09-20T13:22:27.066Z,25.20
2022-09-20T13:24:59.591Z,25.00
2022-09-20T13:27:34.538Z,25.50
2022-09-20T13:30:24.122Z,25.50
2022-09-20T13:32:51.731Z,25.20
2022-09-20T13:35:31.647Z,25.40
2022-09-20T13:38:06.998Z,24.70
2022-09-20T13:40:35.302Z,24.40
2022-09-20T13:43:23.194Z,24.40
2022-09-20T13:46:07.799Z,24.80
2022-09-20T13:48:34.920Z,24.50
2022-09-20T13:51:02.555Z,23.90
2022-09-20T13:53:41.437Z,23.90
2022-09-20T13:56:21.579Z,24.60
2022-09-20T13:58:49.654Z,24.70
2022-09-20T14:01:44.213Z,24.70
2022-09-20T14:04:18.262Z,25.10
2022-09-20T14:06:45.623Z,25.30
2022-09-20T14:09:39.444Z,24.50
2022-09-20T14:12:07.248Z,24.90
2022-09-20T14:14:34.935Z,24.70
2022-09-20T14:17:05.544Z,24.70
2022-09-20T14:19:37.305Z,23.50
2022-09-20T14:22:05.056Z,23.60
2022-09-20T14:24:37.305Z,24.00
2022-09-20T14:27:06.001Z,24.20
2022-09-20T14:29:44.745Z,24.60
2022-09-20T14:32:17.509Z,24.40
2022-09-20T14:35:05.150Z,24.40
2022-09-20T14:37:48.760Z,24.50
2022-09-20T14:40:40.873Z,24.20
2022-09-20T14:43:31.628Z,24.00
2022-09-20T14:46:18.745Z,24.00
2022-09-20T14:48:45.626Z,23.70
2022-09-20T14:51:25.289Z,23.30
2022-09-20T14:54:06.582Z,23.00
2022-09-20T14:56:39.474Z,23.00
2022-09-20T14:59:16.744Z,23.40
2022-09-20T15:01:57.176Z,24.10
2022-09-20T15:04:25.947Z,23.90
2022-09-20T15:06:53.944Z,23.90
2022-09-20T15:09:21.795Z,23.50
2022-09-20T15:12:03.517Z,23.60
2022-09-20T15:14:35.079Z,23.50
2022-09-20T15:17:04.137Z,23.60
2022-09-20T15:19:30.956Z,23.40
2022-09-20T15:21:57.735Z,24.00
2022-09-20T15:24:24.691Z,23.70
2022-09-20T15:26:51.803Z,24.00
2022-09-20T15:29:19.026Z,22.90
2022-09-20T15:31:48.003Z,23.00
2022-09-20T15:34:15.445Z,22.90
2022-09-20T15:36:42.331Z,22.70
2022-09-20T15:39:09.134Z,22.50
2022-09-20T15:41:36.174Z,22.40
2022-09-20T15:44:04.346Z,23.10
2022-09-20T15:46:32.293Z,21.90
2022-09-20T15:49:03.292Z,21.50
2022-09-20T15:51:30.512Z,20.90
2022-09-20T15:54:03.055Z,20.40
2022-09-20T15:56:31.803Z,20.10
2022-09-20T15:59:01.066Z,19.80
2022-09-20T16:01:28.811Z,20.20
2022-09-20T16:03:56.261Z,19.60
2022-09-20T16:06:24.341Z,19.30
2022-09-20T16:08:52.066Z,19.00
2022-09-20T16:11:22.820Z,18.70
2022-09-20T16:13:56.739Z,18.70
2022-09-20T16:16:25.226Z,18.40
2022-09-20T16:19:11.045Z,18.00
2022-09-20T16:21:39.633Z,17.90
2022-09-20T16:24:07.494Z,17.70
2022-09-20T16:26:35.447Z,17.60
2022-09-20T16:29:04.747Z,17.60
2022-09-20T16:31:36.815Z,17.50
2022-09-20T16:34:05.456Z,17.40
2022-09-20T16:36:33.224Z,17.60
2022-09-20T16:39:01.224Z,17.10
2022-09-20T16:41:29.063Z,17.10
2022-09-20T16:43:56.295Z,17.00
2022-09-20T16:46:27.420Z,18.70
2022-09-20T16:48:55.592Z,16.80
2022-09-20T16:51:25.237Z,16.80
2022-09-20T16:53:55.747Z,17.60
2022-09-20T16:56:25.014Z,16.60
2022-09-20T16:58:52.801Z,16.60
2022-09-20T17:01:20.262Z,16.50
2022-09-20T17:03:47.683Z,16.40
2022-09-20T17:06:16.142Z,16.60
2022-09-20T17:08:44.906Z,16.10
2022-09-20T17:11:16.775Z,16.00
2022-09-20T17:13:47.212Z,16.10
2022-09-20T17:16:16.224Z,16.10
2022-09-20T17:18:43.390Z,15.80
2022-09-20T17:21:16.340Z,16.50
2022-09-20T17:23:50.044Z,15.70
2022-09-20T17:26:20.032Z,15.70
2022-09-20T17:28:51.484Z,15.60
2022-09-20T17:31:21.096Z,15.50
2022-09-20T17:33:47.859Z,15.40
2022-09-20T17:36:18.793Z,15.40
2022-09-20T17:38:46.426Z,15.20
2022-09-20T17:41:16.293Z,15.10
2022-09-20T17:43:44.417Z,15.10
2022-09-20T17:46:28.818Z,15.00
2022-09-20T17:49:01.744Z,14.90
2022-09-20T17:51:33.070Z,16.40
2022-09-20T17:54:00.250Z,14.50
2022-09-20T17:56:31.253Z,14.60
2022-09-20T17:59:03.177Z,14.50
2022-09-20T18:01:31.849Z,14.50
2022-09-20T18:04:00.809Z,16.10
2022-09-20T18:06:32.875Z,14.40
2022-09-20T18:09:02.617Z,14.40
2022-09-20T18:11:36.615Z,14.30
2022-09-20T18:14:05.641Z,14.30
2022-09-20T18:16:33.805Z,14.20
2022-09-20T18:19:01.453Z,14.10
2022-09-20T18:21:30.644Z,14.40
2022-09-20T18:23:57.748Z,14.00
2022-09-20T18:26:27.746Z,14.60
2022-09-20T18:28:58.545Z,14.00
2022-09-20T18:31:34.573Z,14.10
2022-09-20T18:34:02.338Z,14.20
2022-09-20T18:36:30.749Z,14.10
2022-09-20T18:38:58.434Z,14.70
2022-09-20T18:41:31.855Z,14.10
2022-09-20T18:43:59.020Z,14.00
2022-09-20T18:46:27.402Z,14.00
2022-09-20T18:48:55.898Z,13.70
2022-09-20T18:51:24.398Z,13.90
2022-09-20T18:53:52.181Z,13.70
2022-09-20T18:56:22.576Z,13.80
2022-09-20T18:58:58.344Z,13.60
2022-09-20T19:01:34.249Z,13.50
2022-09-20T19:04:06.849Z,13.60
2022-09-20T19:06:44.359Z,14.20
2022-09-20T19:09:38.609Z,14.30
2022-09-20T19:12:19.818Z,13.60
2022-09-20T19:15:08.122Z,13.60
2022-09-20T19:18:00.983Z,13.50
2022-09-20T19:20:36.888Z,13.40
2022-09-20T19:23:31.711Z,13.60
2022-09-20T19:26:19.279Z,13.40
2022-09-20T19:28:47.279Z,13.40
2022-09-20T19:31:26.609Z,13.40
2022-09-20T19:33:55.130Z,13.30
2022-09-20T19:36:32.319Z,13.20
2022-09-20T19:39:14.992Z,13.20
2022-09-20T19:42:03.920Z,13.10
2022-09-20T19:44:35.086Z,13.00
2022-09-20T19:47:20.266Z,13.50
2022-09-20T19:49:55.291Z,13.30
2022-09-20T19:52:23.636Z,12.90
2022-09-20T19:54:51.588Z,12.90
2022-09-20T19:57:31.311Z,12.90
2022-09-20T19:59:58.215Z,12.90
2022-09-20T20:02:25.282Z,12.90
2022-09-20T20:04:52.803Z,12.80
2022-09-20T20:07:34.544Z,12.60
2022-09-20T20:10:26.474Z,12.70
2022-09-20T20:13:01.630Z,12.70
2022-09-20T20:15:49.262Z,12.70
2022-09-20T20:18:39.816Z,12.50
2022-09-20T20:21:18.878Z,12.50
2022-09-20T20:24:15.155Z,12.50
2022-09-20T20:26:41.895Z,12.40
2022-09-20T20:29:10.225Z,12.40
2022-09-20T20:31:36.997Z,12.50
2022-09-20T20:34:03.917Z,12.70
2022-09-20T20:36:30.743Z,12.50
2022-09-20T20:38:57.524Z,13.50
2022-09-20T20:41:24.525Z,14.10
2022-09-20T20:43:57.229Z,12.70
2022-09-20T20:46:24.588Z,12.50
2022-09-20T20:48:51.379Z,12.40
2022-09-20T20:51:22.962Z,12.50
2022-09-20T20:53:54.506Z,12.20
2022-09-20T20:56:25.715Z,12.40
2022-09-20T20:58:53.013Z,12.10
2022-09-20T21:01:22.548Z,12.20
2022-09-20T21:03:52.368Z,12.40
2022-09-20T21:06:20.879Z,12.10
2022-09-20T21:08:49.796Z,12.10
2022-09-20T21:11:25.603Z,12.00
2022-09-20T21:13:59.575Z,12.00
2022-09-20T21:16:29.623Z,12.00
2022-09-20T21:18:56.993Z,12.00
2022-09-20T21:21:25.822Z,12.10
2022-09-20T21:23:54.707Z,12.00
2022-09-20T21:26:23.087Z,11.90
2022-09-20T21:28:52.237Z,12.00
2022-09-20T21:31:20.523Z,11.80
2022-09-20T21:33:47.360Z,11.70
2022-09-20T21:36:15.863Z,11.80
2022-09-20T21:38:43.940Z,11.80
2022-09-20T21:41:12.880Z,11.80
2022-09-20T21:43:42.515Z,11.90
2022-09-20T21:46:20.302Z,11.90
2022-09-20T21:48:48.443Z,11.80
2022-09-20T21:51:18.230Z,11.60
2022-09-20T21:53:45.512Z,11.70
2022-09-20T21:56:14.315Z,11.70
2022-09-20T21:58:41.095Z,11.70
2022-09-20T22:01:11.823Z,11.60
2022-09-20T22:03:41.631Z,11.60
2022-09-20T22:06:11.023Z,11.70
2022-09-20T22:08:40.761Z,11.60
2022-09-20T22:11:11.165Z,11.60
2022-09-20T22:13:41.493Z,11.70
2022-09-20T22:16:11.150Z,11.60
2022-09-20T22:18:40.237Z,11.60
2022-09-20T22:21:10.915Z,11.80
2022-09-20T22:23:38.338Z,11.60
2022-09-20T22:26:11.846Z,11.50
2022-09-20T22:28:38.855Z,11.50
2022-09-20T22:31:17.554Z,13.60
2022-09-20T22:33:46.794Z,11.50
2022-09-20T22:36:15.589Z,11.50
2022-09-20T22:38:43.603Z,11.70
2022-09-20T22:41:11.468Z,11.50
2022-09-20T22:43:38.818Z,11.40
2022-09-20T22:46:16.331Z,12.80
2022-09-20T22:48:43.757Z,11.50
2022-09-20T22:51:22.235Z,11.40
2022-09-20T22:53:49.492Z,11.40
2022-09-20T22:56:29.336Z,11.30
2022-09-20T22:59:10.815Z,11.30
2022-09-20T23:01:42.979Z,11.20
2022-09-20T23:04:17.601Z,12.40
2022-09-20T23:06:51.866Z,11.10
2022-09-20T23:09:19.034Z,11.00
2022-09-20T23:12:05.869Z,11.10
2022-09-20T23:14:32.661Z,11.00
2022-09-20T23:16:59.492Z,10.90
2022-09-20T23:19:26.426Z,11.00
2022-09-20T23:21:53.111Z,11.10
2022-09-20T23:24:19.848Z,11.00
2022-09-20T23:26:46.672Z,11.00
2022-09-20T23:29:16.072Z,11.10
2022-09-20T23:31:46.134Z,10.90
2022-09-20T23:34:14.040Z,10.90
2022-09-20T23:36:42.470Z,10.80
2022-09-20T23:39:10.609Z,11.00
2022-09-20T23:41:38.196Z,11.00
2022-09-20T23:44:06.716Z,10.90
2022-09-20T23:46:34.364Z,11.50
2022-09-20T23:49:01.460Z,11.00
2022-09-20T23:51:32.599Z,11.20
2022-09-20T23:53:59.495Z,11.20
2022-09-20T23:56:26.820Z,11.10
2022-09-20T23:58:54.151Z,11.10
